Time;durP1;ratioP1;P1;durP2;ratioP2;P2;SDS_P1;SDS_P2;PMS_P1;PMS_P2;Temp;Humidity;BMP_temperature;BMP_pressure;BME280_temperature;BME280_humidity;BME280_pressure;Samples;Min_cycle;Max_cycle;Signal;HPM_P1;HPM_P2
2023/08/13 00:01:43;;;;;;;6.82;2.92;;;18.30;99.90;;;;;;5073603;28;20493;-53
2023/08/13 00:04:08;;;;;;;10.27;2.13;;;18.30;99.90;;;;;;5074113;28;20044;-54
2023/08/13 00:06:34;;;;;;;8.77;1.77;;;18.30;99.90;;;;;;5073626;28;20025;-40
2023/08/13 00:09:00;;;;;;;7.57;1.38;;;18.30;99.90;;;;;;5073602;28;20077;-43
2023/08/13 00:11:25;;;;;;;9.23;1.20;;;18.20;99.90;;;;;;5073502;28;20463;-40
2023/08/13 00:13:51;;;;;;;13.48;2.13;;;18.20;99.90;;;;;;5055745;28;20032;-40
2023/08/13 00:16:17;;;;;;;6.40;1.70;;;18.20;99.90;;;;;;5072160;28;20362;-43
2023/08/13 00:18:43;;;;;;;15.05;2.08;;;18.20;99.90;;;;;;5073825;28;20028;-44
2023/08/13 00:21:08;;;;;;;8.63;1.35;;;18.20;99.90;;;;;;5073287;28;20031;-45
2023/08/13 00:23:34;;;;;;;5.43;1.30;;;18.20;99.90;;;;;;5073338;28;20032;-41
2023/08/13 00:25:59;;;;;;;6.53;1.30;;;18.20;99.90;;;;;;5073477;28;20473;-42
2023/08/13 00:28:25;;;;;;;8.20;1.23;;;18.10;99.90;;;;;;5073432;28;20495;-41
2023/08/13 00:30:51;;;;;;;9.70;1.55;;;18.10;99.90;;;;;;5073393;28;20082;-40
2023/08/13 00:33:16;;;;;;;10.65;1.42;;;18.10;99.90;;;;;;5073441;28;20031;-41
2023/08/13 00:35:42;;;;;;;8.13;1.83;;;18.10;99.90;;;;;;5073286;28;20024;-44
2023/08/13 00:38:08;;;;;;;4.18;1.27;;;18.10;99.90;;;;;;5073442;28;20062;-55
2023/08/13 00:40:34;;;;;;;9.07;1.48;;;18.00;99.90;;;;;;5073302;28;20032;-42
2023/08/13 00:43:00;;;;;;;14.32;1.75;;;18.00;99.90;;;;;;5072936;28;20575;-52
2023/08/13 00:45:26;;;;;;;11.07;1.70;;;18.00;99.90;;;;;;5054927;28;20107;-53
2023/08/13 00:47:52;;;;;;;9.70;1.98;;;17.90;99.90;;;;;;5073194;28;20362;-51
2023/08/13 00:50:17;;;;;;;13.70;1.63;;;17.90;99.90;;;;;;5072975;28;20030;-50
2023/08/13 00:52:43;;;;;;;4.38;1.33;;;17.90;99.90;;;;;;5073247;28;20032;-50
2023/08/13 00:55:11;;;;;;;9.23;2.05;;;17.90;99.90;;;;;;5055298;28;20020;-48
2023/08/13 00:57:37;;;;;;;14.15;2.45;;;17.90;99.90;;;;;;5072749;28;20074;-52
2023/08/13 01:00:06;;;;;;;4.13;1.17;;;17.90;99.90;;;;;;5072989;28;20046;-54
2023/08/13 01:02:32;;;;;;;6.80;1.38;;;17.90;99.90;;;;;;5072541;28;20024;-53
2023/08/13 01:04:59;;;;;;;16.13;1.88;;;17.90;99.90;;;;;;5054735;28;20095;-54
2023/08/13 01:07:45;;;;;;;7.32;1.85;;;17.90;99.90;;;;;;5054784;28;20040;-50
2023/08/13 01:10:28;;;;;;;10.35;1.27;;;17.90;99.90;;;;;;5072309;28;20553;-49
2023/08/13 01:13:12;;;;;;;8.10;1.67;;;17.80;99.90;;;;;;5054662;28;20056;-52
2023/08/13 01:15:40;;;;;;;6.40;1.65;;;17.80;99.90;;;;;;5072759;28;20413;-51
2023/08/13 01:18:07;;;;;;;10.85;2.58;;;17.90;99.90;;;;;;5072949;28;20023;-51
2023/08/13 01:20:36;;;;;;;3.60;1.70;;;17.90;99.90;;;;;;5072569;28;20469;-49
2023/08/13 01:23:02;;;;;;;9.00;1.83;;;17.80;99.90;;;;;;5072583;28;20027;-52
2023/08/13 01:25:28;;;;;;;7.25;1.83;;;17.80;99.90;;;;;;5072565;28;20546;-51
2023/08/13 01:28:08;;;;;;;8.80;1.70;;;17.90;99.90;;;;;;5072839;28;20115;-52
2023/08/13 01:30:43;;;;;;;8.55;2.55;;;17.90;99.90;;;;;;5072640;28;20396;-52
2023/08/13 01:33:12;;;;;;;6.93;1.58;;;17.90;99.90;;;;;;5075535;28;20501;-52
2023/08/13 01:35:39;;;;;;;8.93;2.13;;;17.80;99.90;;;;;;5077158;28;20070;-39
2023/08/13 01:38:06;;;;;;;7.93;2.03;;;17.80;99.90;;;;;;5076441;28;20030;-40
2023/08/13 01:40:32;;;;;;;8.85;2.03;;;17.80;99.90;;;;;;5076663;28;20020;-62
2023/08/13 01:42:57;;;;;;;10.60;1.70;;;17.80;99.90;;;;;;5076520;28;20037;-50
2023/08/13 01:45:23;;;;;;;4.30;1.85;;;17.80;99.90;;;;;;5076455;28;20024;-51
2023/08/13 01:47:49;;;;;;;12.00;2.30;;;17.80;99.90;;;;;;5076733;28;20568;-50
2023/08/13 01:50:15;;;;;;;10.27;2.42;;;17.80;99.90;;;;;;5076489;28;20035;-50
2023/08/13 01:52:41;;;;;;;5.25;1.75;;;17.70;99.90;;;;;;5076287;28;20025;-52
2023/08/13 01:55:07;;;;;;;9.95;2.80;;;17.70;99.90;;;;;;5076250;28;20027;-52
2023/08/13 01:57:32;;;;;;;7.30;2.10;;;17.70;99.90;;;;;;5076152;28;20045;-53
2023/08/13 01:59:58;;;;;;;6.97;2.88;;;17.70;99.90;;;;;;5076301;28;20028;-50
2023/08/13 02:02:24;;;;;;;8.48;1.80;;;17.70;99.90;;;;;;5076024;28;20024;-51
2023/08/13 02:04:50;;;;;;;9.23;2.10;;;17.70;99.90;;;;;;5076181;28;20419;-50
2023/08/13 02:07:16;;;;;;;6.68;2.25;;;17.60;99.90;;;;;;5076056;28;20078;-50
2023/08/13 02:09:41;;;;;;;2.72;1.80;;;17.60;99.90;;;;;;5058164;28;20532;-53
2023/08/13 02:12:07;;;;;;;8.07;2.33;;;17.60;99.90;;;;;;5075657;28;20150;-53
2023/08/13 02:14:33;;;;;;;9.07;1.70;;;17.60;99.90;;;;;;5074018;28;20062;-48
2023/08/13 02:16:59;;;;;;;10.55;2.25;;;17.60;99.90;;;;;;5072563;28;20021;-50
2023/08/13 02:19:25;;;;;;;10.38;2.03;;;17.60;99.90;;;;;;5071649;28;20491;-54
2023/08/13 02:21:51;;;;;;;10.63;2.13;;;17.60;99.90;;;;;;5067510;28;20026;-54
2023/08/13 02:24:17;;;;;;;6.47;1.67;;;17.50;99.90;;;;;;5068377;28;20031;-50
2023/08/13 02:26:42;;;;;;;9.23;2.67;;;17.50;99.90;;;;;;5073464;28;20530;-51
2023/08/13 02:29:08;;;;;;;7.95;1.80;;;17.50;99.90;;;;;;5056863;28;20461;-50
2023/08/13 02:31:34;;;;;;;7.22;1.80;;;17.50;99.90;;;;;;5071835;28;20078;-47
2023/08/13 02:33:59;;;;;;;13.10;1.42;;;17.50;99.90;;;;;;5058139;28;20551;-48
2023/08/13 02:36:25;;;;;;;8.32;2.65;;;17.50;99.90;;;;;;5073600;28;20035;-51
2023/08/13 02:38:51;;;;;;;4.68;1.58;;;17.50;99.90;;;;;;5061871;28;20032;-52
2023/08/13 02:41:16;;;;;;;2.35;1.35;;;17.40;99.90;;;;;;5071896;28;20040;-51
2023/08/13 02:43:56;;;;;;;7.53;1.85;;;17.50;99.90;;;;;;5068555;28;20021;-48
2023/08/13 02:46:23;;;;;;;10.68;2.08;;;17.40;99.90;;;;;;5071266;28;20026;-50
2023/08/13 02:48:50;;;;;;;7.63;2.13;;;17.40;99.90;;;;;;5068705;28;20436;-50
2023/08/13 02:51:16;;;;;;;12.05;2.03;;;17.40;99.90;;;;;;5071644;28;20516;-51
2023/08/13 02:53:42;;;;;;;4.38;1.83;;;17.40;99.90;;;;;;5072199;28;20060;-52
2023/08/13 02:56:08;;;;;;;2.75;1.60;;;17.40;99.90;;;;;;5070378;28;20078;-52
2023/08/13 02:58:33;;;;;;;5.68;1.70;;;17.40;99.90;;;;;;5069970;28;20040;-53
2023/08/13 03:01:00;;;;;;;5.05;1.50;;;17.40;99.90;;;;;;5065772;28;20400;-53
2023/08/13 03:03:25;;;;;;;7.97;1.83;;;17.40;99.90;;;;;;5075019;28;20040;-52
2023/08/13 03:05:51;;;;;;;8.65;1.67;;;17.40;99.90;;;;;;5074864;28;20361;-52
2023/08/13 03:08:17;;;;;;;3.67;1.35;;;17.40;99.90;;;;;;5056947;28;20033;-50
2023/08/13 03:10:42;;;;;;;4.03;1.48;;;17.40;99.90;;;;;;5074060;28;20020;-52
2023/08/13 03:13:08;;;;;;;10.07;2.28;;;17.40;99.90;;;;;;5073780;28;20127;-50
2023/08/13 03:15:34;;;;;;;9.07;2.03;;;17.40;99.90;;;;;;5053604;28;20035;-52
2023/08/13 03:17:59;;;;;;;9.77;2.42;;;17.40;99.90;;;;;;5064137;28;20029;-54
2023/08/13 03:20:25;;;;;;;13.45;2.33;;;17.30;99.90;;;;;;5072585;28;20025;-53
2023/08/13 03:22:51;;;;;;;10.63;1.73;;;17.30;99.90;;;;;;5070956;28;20060;-52
2023/08/13 03:25:16;;;;;;;6.70;1.95;;;17.30;99.90;;;;;;5073518;28;20048;-52
2023/08/13 03:27:42;;;;;;;6.93;1.30;;;17.30;99.90;;;;;;5072159;28;20024;-53
2023/08/13 03:30:08;;;;;;;8.50;1.73;;;17.30;99.90;;;;;;5069628;28;20053;-51
2023/08/13 03:32:35;;;;;;;12.68;2.33;;;17.30;99.90;;;;;;5071708;28;20082;-51
2023/08/13 03:35:00;;;;;;;8.40;1.65;;;17.40;99.90;;;;;;5064726;28;20081;-53
2023/08/13 03:37:26;;;;;;;9.30;1.58;;;17.30;99.90;;;;;;5073816;28;20129;-50
2023/08/13 03:39:52;;;;;;;10.88;1.52;;;17.40;99.90;;;;;;5072932;28;20020;-52
2023/08/13 03:42:17;;;;;;;4.93;1.55;;;17.30;99.90;;;;;;5073468;28;20024;-53
2023/08/13 03:44:43;;;;;;;5.03;1.80;;;17.30;99.90;;;;;;5072221;28;20115;-53
2023/08/13 03:47:09;;;;;;;7.82;1.85;;;17.30;99.90;;;;;;5074090;28;20032;-51
2023/08/13 03:49:35;;;;;;;3.35;1.30;;;17.30;99.90;;;;;;5072237;28;20040;-50
2023/08/13 03:52:00;;;;;;;6.25;1.83;;;17.30;99.90;;;;;;5073358;28;20504;-52
2023/08/13 03:54:26;;;;;;;9.27;1.85;;;17.30;99.90;;;;;;5073003;28;20017;-48
2023/08/13 03:56:52;;;;;;;11.50;1.50;;;17.30;99.90;;;;;;5065136;28;20045;-50
2023/08/13 03:59:17;;;;;;;8.27;1.85;;;17.20;99.90;;;;;;5071906;28;20017;-51
2023/08/13 04:01:43;;;;;;;7.75;1.55;;;17.30;99.90;;;;;;5073899;28;20028;-50
2023/08/13 04:04:09;;;;;;;7.25;1.60;;;17.30;99.90;;;;;;5073923;28;20515;-53
2023/08/13 04:06:35;;;;;;;6.38;2.17;;;17.30;99.90;;;;;;5072856;28;20033;-50
2023/08/13 04:09:00;;;;;;;5.90;1.77;;;17.30;99.90;;;;;;5071480;28;20028;-50
2023/08/13 04:11:26;;;;;;;10.10;2.00;;;17.30;99.90;;;;;;5072935;28;20572;-52
2023/08/13 04:13:52;;;;;;;7.15;1.60;;;17.30;99.90;;;;;;5072371;28;20432;-49
2023/08/13 04:16:17;;;;;;;10.38;2.00;;;17.20;99.90;;;;;;5072965;28;20469;-53
2023/08/13 04:18:43;;;;;;;9.80;1.35;;;17.20;99.90;;;;;;5073919;28;20028;-52
2023/08/13 04:21:09;;;;;;;7.18;1.63;;;17.20;99.90;;;;;;5071970;28;20108;-56
2023/08/13 04:23:35;;;;;;;2.50;0.88;;;17.20;99.90;;;;;;5073462;28;20063;-45
2023/08/13 04:26:00;;;;;;;4.10;1.42;;;17.20;99.90;;;;;;5071801;28;20067;-53
2023/08/13 04:28:26;;;;;;;9.07;1.48;;;17.20;99.90;;;;;;5072538;28;20024;-59
2023/08/13 04:30:52;;;;;;;5.65;1.42;;;17.20;99.90;;;;;;5072061;28;20024;-49
2023/08/13 04:33:17;;;;;;;5.88;1.40;;;17.20;99.90;;;;;;5072327;28;20031;-51
2023/08/13 04:35:43;;;;;;;5.60;1.38;;;17.10;99.90;;;;;;5071317;28;20036;-51
2023/08/13 04:38:09;;;;;;;6.20;1.45;;;17.20;99.90;;;;;;5048791;28;20047;-52
2023/08/13 04:40:34;;;;;;;6.57;1.70;;;17.20;99.90;;;;;;5071901;28;20028;-50
2023/08/13 04:43:00;;;;;;;3.03;1.40;;;17.20;99.90;;;;;;5072442;28;20037;-53
2023/08/13 04:45:26;;;;;;;6.82;1.25;;;17.20;99.90;;;;;;5070153;28;20075;-50
2023/08/13 04:47:52;;;;;;;7.57;2.13;;;17.20;99.90;;;;;;5066785;28;20496;-52
2023/08/13 04:50:18;;;;;;;8.88;1.27;;;17.20;99.90;;;;;;5072462;28;20028;-52
2023/08/13 04:52:43;;;;;;;5.22;1.20;;;17.20;99.90;;;;;;5071504;28;20069;-47
2023/08/13 04:55:09;;;;;;;4.80;1.30;;;17.30;99.90;;;;;;5072133;28;20028;-52
2023/08/13 04:57:35;;;;;;;5.68;1.10;;;17.30;99.90;;;;;;5070828;28;20556;-44
2023/08/13 05:00:01;;;;;;;9.00;2.05;;;17.30;99.90;;;;;;5063604;28;20032;-52
2023/08/13 05:02:27;;;;;;;5.57;1.40;;;17.30;99.90;;;;;;5072129;28;20480;-50
2023/08/13 05:04:54;;;;;;;8.48;2.13;;;17.30;99.90;;;;;;5072889;28;20533;-50
2023/08/13 05:07:19;;;;;;;5.28;1.50;;;17.30;99.90;;;;;;5071959;28;20028;-50
2023/08/13 05:09:45;;;;;;;6.20;1.20;;;17.30;99.90;;;;;;5071636;28;20028;-65
2023/08/13 05:12:12;;;;;;;7.45;2.13;;;17.30;99.90;;;;;;5072809;28;20032;-53
2023/08/13 05:14:37;;;;;;;2.95;1.20;;;17.30;99.90;;;;;;5070499;28;20049;-50
2023/08/13 05:17:19;;;;;;;7.50;1.80;;;17.30;99.90;;;;;;5071376;28;20113;-51
2023/08/13 05:19:45;;;;;;;8.70;1.67;;;17.30;99.90;;;;;;5069810;28;20023;-68
2023/08/13 05:22:11;;;;;;;6.13;1.77;;;17.30;99.90;;;;;;5071734;28;20504;-50
2023/08/13 05:24:36;;;;;;;8.27;1.75;;;17.40;99.90;;;;;;5071082;28;20060;-50
2023/08/13 05:27:03;;;;;;;5.07;1.20;;;17.40;99.90;;;;;;5070160;28;20051;-51
2023/08/13 05:29:29;;;;;;;3.10;1.52;;;17.40;99.90;;;;;;5069868;28;20108;-49
2023/08/13 05:31:54;;;;;;;8.63;1.23;;;17.40;99.90;;;;;;5069348;28;20104;-53
2023/08/13 05:34:20;;;;;;;16.83;2.28;;;17.40;99.90;;;;;;5071201;28;20028;-53
2023/08/13 05:36:46;;;;;;;10.57;1.23;;;17.50;99.90;;;;;;5052726;28;20048;-52
2023/08/13 05:39:11;;;;;;;8.57;1.65;;;17.50;99.90;;;;;;5068143;28;20431;-53
2023/08/13 05:41:37;;;;;;;6.07;1.30;;;17.50;99.90;;;;;;5069753;28;20043;-52
2023/08/13 05:44:03;;;;;;;4.72;2.05;;;17.50;99.90;;;;;;5071519;28;20029;-53
2023/08/13 05:46:29;;;;;;;9.68;1.73;;;17.60;99.90;;;;;;5044065;28;20504;-50
2023/08/13 05:48:55;;;;;;;6.90;1.58;;;17.70;99.90;;;;;;5070111;28;20016;-53
2023/08/13 05:51:21;;;;;;;7.28;1.33;;;17.70;99.90;;;;;;5070910;28;20090;-52
2023/08/13 05:53:47;;;;;;;3.85;1.63;;;17.70;99.90;;;;;;5070491;28;20032;-52
2023/08/13 05:56:13;;;;;;;3.95;1.30;;;17.80;99.90;;;;;;5068964;28;20025;-47
2023/08/13 05:58:38;;;;;;;6.75;1.38;;;17.80;99.90;;;;;;5072145;28;20040;-51
2023/08/13 06:01:04;;;;;;;8.45;2.65;;;17.90;99.90;;;;;;5070063;28;20074;-51
2023/08/13 06:03:30;;;;;;;13.30;2.17;;;17.90;99.90;;;;;;5070673;28;20025;-51
2023/08/13 06:05:56;;;;;;;8.73;2.15;;;18.00;99.90;;;;;;5072527;28;20031;-52
2023/08/13 06:08:22;;;;;;;5.25;1.98;;;18.00;99.90;;;;;;5057448;28;20104;-52
2023/08/13 06:10:48;;;;;;;7.78;1.95;;;18.10;99.90;;;;;;5057897;28;20445;-54
2023/08/13 06:13:13;;;;;;;7.03;1.88;;;18.10;99.90;;;;;;5072011;28;20067;-48
2023/08/13 06:15:39;;;;;;;10.50;1.85;;;18.20;99.90;;;;;;5070129;28;20021;-47
2023/08/13 06:18:05;;;;;;;8.35;1.25;;;18.30;99.90;;;;;;5073024;28;20020;-53
2023/08/13 06:20:31;;;;;;;6.65;1.63;;;18.40;99.90;;;;;;5075065;28;20025;-50
2023/08/13 06:22:57;;;;;;;10.68;1.52;;;18.50;99.90;;;;;;5076023;28;20063;-53
2023/08/13 06:25:23;;;;;;;5.80;1.75;;;18.60;99.90;;;;;;5054412;28;20482;-52
2023/08/13 06:27:48;;;;;;;3.08;1.42;;;18.70;99.90;;;;;;5075711;28;20028;-49
2023/08/13 06:30:14;;;;;;;5.05;1.90;;;18.80;99.90;;;;;;5075664;28;20481;-52
2023/08/13 06:32:39;;;;;;;8.25;1.70;;;18.80;99.90;;;;;;5073499;28;20577;-53
2023/08/13 06:35:06;;;;;;;15.90;1.63;;;18.80;99.90;;;;;;5075620;28;20052;-54
2023/08/13 06:37:31;;;;;;;5.97;1.27;;;18.90;99.90;;;;;;5075688;28;20021;-51
2023/08/13 06:39:57;;;;;;;4.05;1.15;;;18.90;99.90;;;;;;5075406;28;20016;-49
2023/08/13 06:42:23;;;;;;;7.20;1.65;;;18.90;99.90;;;;;;5056479;28;20042;-53
2023/08/13 06:44:49;;;;;;;9.90;2.08;;;19.00;99.90;;;;;;5075363;28;20021;-51
2023/08/13 06:47:15;;;;;;;6.00;1.73;;;19.00;99.90;;;;;;5066198;28;20051;-48
2023/08/13 06:49:41;;;;;;;13.20;1.60;;;19.00;99.90;;;;;;5067694;28;20031;-53
2023/08/13 06:52:06;;;;;;;7.70;1.67;;;19.10;99.90;;;;;;5072873;28;20621;-40
2023/08/13 06:54:32;;;;;;;6.95;1.65;;;19.20;99.90;;;;;;5072363;28;20021;-40
2023/08/13 06:56:59;;;;;;;13.73;1.88;;;19.20;99.90;;;;;;5073870;28;20104;-39
2023/08/13 06:59:24;;;;;;;5.30;1.20;;;19.30;99.90;;;;;;5074309;28;20097;-40
2023/08/13 07:01:50;;;;;;;13.48;1.77;;;19.40;99.90;;;;;;5073584;28;20020;-51
2023/08/13 07:04:16;;;;;;;3.28;1.58;;;19.50;99.90;;;;;;5073416;28;20032;-51
2023/08/13 07:06:41;;;;;;;9.60;1.50;;;19.60;99.90;;;;;;5072443;28;20020;-54
2023/08/13 07:09:10;;;;;;;6.65;1.50;;;19.70;99.90;;;;;;5071540;28;20031;-52
2023/08/13 07:11:36;;;;;;;10.13;1.40;;;19.80;99.90;;;;;;5074065;28;20074;-52
2023/08/13 07:14:03;;;;;;;6.22;1.35;;;19.90;99.90;;;;;;5072814;28;20115;-45
2023/08/13 07:16:29;;;;;;;10.73;1.40;;;20.00;99.90;;;;;;5066119;28;20407;-65
2023/08/13 07:18:55;;;;;;;6.53;1.35;;;20.20;99.90;;;;;;5073497;28;20037;-49
2023/08/13 07:21:21;;;;;;;7.15;1.30;;;20.30;99.90;;;;;;5074455;28;20456;-52
2023/08/13 07:23:47;;;;;;;10.27;2.00;;;20.30;99.90;;;;;;5067608;28;20020;-50
2023/08/13 07:26:13;;;;;;;9.63;1.40;;;20.40;99.90;;;;;;5054503;28;20036;-52
2023/08/13 07:28:40;;;;;;;10.35;1.30;;;20.50;99.90;;;;;;5064575;28;20046;-51
2023/08/13 07:31:06;;;;;;;13.85;1.33;;;20.50;99.90;;;;;;5073652;28;20024;-53
2023/08/13 07:33:33;;;;;;;6.63;1.90;;;20.60;99.90;;;;;;5055869;28;20066;-49
2023/08/13 07:36:00;;;;;;;7.30;1.58;;;20.70;99.90;;;;;;5074442;28;20025;-53
2023/08/13 07:38:26;;;;;;;8.68;1.40;;;20.80;99.90;;;;;;5056714;28;20465;-52
2023/08/13 07:40:51;;;;;;;7.35;1.38;;;20.90;99.90;;;;;;5074305;28;20017;-50
2023/08/13 07:43:17;;;;;;;4.05;1.60;;;20.90;99.90;;;;;;5074312;28;20036;-51
2023/08/13 07:45:43;;;;;;;7.05;1.70;;;20.80;99.90;;;;;;5068647;28;20036;-51
2023/08/13 07:48:09;;;;;;;5.70;1.30;;;20.80;99.90;;;;;;5048840;28;20425;-51
2023/08/13 07:50:35;;;;;;;8.52;2.08;;;20.80;99.90;;;;;;5060120;28;20025;-51
2023/08/13 07:53:00;;;;;;;3.83;1.73;;;20.80;99.90;;;;;;5064636;28;20029;-48
2023/08/13 07:55:26;;;;;;;5.43;1.75;;;20.70;99.90;;;;;;5072603;28;20496;-53
2023/08/13 07:57:52;;;;;;;4.55;1.38;;;20.70;99.90;;;;;;5069368;28;20048;-51
2023/08/13 08:00:17;;;;;;;6.03;1.80;;;20.60;99.90;;;;;;5053937;28;20033;-53
2023/08/13 08:02:43;;;;;;;7.70;1.48;;;20.60;99.90;;;;;;5072173;28;20408;-52
2023/08/13 08:05:10;;;;;;;9.23;1.25;;;20.60;99.90;;;;;;5073757;28;20032;-52
2023/08/13 08:07:36;;;;;;;4.70;1.48;;;20.60;99.90;;;;;;5055748;28;20028;-50
2023/08/13 08:10:05;;;;;;;7.63;1.50;;;20.70;99.90;;;;;;5071836;28;20051;-47
2023/08/13 08:12:30;;;;;;;7.40;1.70;;;20.80;99.90;;;;;;5072714;28;20055;-53
2023/08/13 08:14:56;;;;;;;6.72;1.67;;;20.80;99.90;;;;;;5073735;28;20029;-51
2023/08/13 08:17:22;;;;;;;5.00;1.60;;;21.00;99.90;;;;;;5073778;28;20499;-54
2023/08/13 08:19:48;;;;;;;6.47;1.55;;;21.10;99.90;;;;;;5073695;28;20028;-53
2023/08/13 08:22:15;;;;;;;3.78;1.42;;;21.20;99.90;;;;;;5073541;28;20020;-52
2023/08/13 08:24:41;;;;;;;3.20;1.63;;;21.20;99.90;;;;;;5072080;28;20066;-52
2023/08/13 08:27:07;;;;;;;4.53;1.70;;;21.30;99.90;;;;;;5044088;28;20020;-52
2023/08/13 08:29:34;;;;;;;3.50;0.90;;;21.20;99.90;;;;;;5068867;28;20028;-54
2023/08/13 08:32:00;;;;;;;7.75;2.42;;;21.20;99.90;;;;;;5071403;28;20024;-50
2023/08/13 08:34:26;;;;;;;6.38;1.38;;;21.30;99.90;;;;;;5073109;28;20093;-54
2023/08/13 08:36:52;;;;;;;5.65;1.50;;;21.30;99.90;;;;;;5073147;28;20020;-54
2023/08/13 08:39:18;;;;;;;5.45;1.30;;;21.30;99.90;;;;;;5073281;28;20024;-51
2023/08/13 08:41:47;;;;;;;3.88;1.20;;;21.50;99.90;;;;;;5071980;28;20107;-51
2023/08/13 08:44:20;;;;;;;5.63;1.02;;;21.50;99.90;;;;;;5071430;28;20057;-51
2023/08/13 08:46:53;;;;;;;6.97;1.17;;;21.50;99.90;;;;;;5066066;28;20028;-50
2023/08/13 08:49:21;;;;;;;5.15;1.95;;;21.50;99.90;;;;;;5073435;28;20055;-52
2023/08/13 08:51:47;;;;;;;4.90;1.27;;;21.60;99.90;;;;;;5071590;28;20592;-49
2023/08/13 08:54:14;;;;;;;2.78;0.80;;;21.60;99.90;;;;;;5064377;28;20381;-52
2023/08/13 08:56:40;;;;;;;6.70;1.08;;;21.50;99.90;;;;;;5066954;28;20441;-52
2023/08/13 08:59:06;;;;;;;8.02;1.08;;;21.50;99.90;;;;;;5064591;28;20076;-53
2023/08/13 09:01:32;;;;;;;8.02;2.28;;;21.50;99.90;;;;;;5066922;28;20032;-47
2023/08/13 09:03:58;;;;;;;7.70;1.00;;;21.40;99.90;;;;;;5066663;28;20583;-47
2023/08/13 09:06:23;;;;;;;8.20;1.35;;;21.50;99.90;;;;;;5068701;28;20111;-49
2023/08/13 09:08:49;;;;;;;8.40;1.35;;;21.50;99.90;;;;;;5069076;28;20473;-51
2023/08/13 09:11:18;;;;;;;7.05;1.67;;;21.50;99.90;;;;;;5071366;28;20032;-51
2023/08/13 09:13:50;;;;;;;5.40;1.45;;;21.50;99.90;;;;;;5072667;28;20043;-51
2023/08/13 09:16:16;;;;;;;4.93;1.10;;;21.60;99.90;;;;;;5070871;28;20078;-48
2023/08/13 09:18:42;;;;;;;6.85;1.83;;;21.80;99.90;;;;;;5071739;28;20035;-52
2023/08/13 09:21:09;;;;;;;7.22;2.10;;;22.00;99.90;;;;;;5071370;28;20404;-52
2023/08/13 09:23:39;;;;;;;5.00;1.25;;;22.00;99.90;;;;;;5072565;28;20034;-54
2023/08/13 09:26:05;;;;;;;2.58;1.25;;;22.20;99.90;;;;;;5072485;28;20033;-52
2023/08/13 09:28:31;;;;;;;4.63;1.77;;;22.20;99.90;;;;;;5072634;28;20423;-50
2023/08/13 09:30:57;;;;;;;6.53;1.30;;;22.20;99.90;;;;;;5071871;28;20539;-53
2023/08/13 09:33:23;;;;;;;5.07;1.50;;;22.20;99.90;;;;;;5047826;28;20044;-52
2023/08/13 09:35:48;;;;;;;3.70;1.70;;;22.10;99.90;;;;;;5072885;28;20477;-51
2023/08/13 09:38:14;;;;;;;5.57;1.58;;;22.00;99.90;;;;;;5072100;28;20021;-50
2023/08/13 09:40:42;;;;;;;3.67;1.30;;;22.10;99.90;;;;;;5072287;28;20020;-53
2023/08/13 09:43:10;;;;;;;11.15;2.85;;;22.10;99.90;;;;;;5072334;28;20082;-48
2023/08/13 09:45:36;;;;;;;8.05;1.50;;;22.10;99.90;;;;;;5072419;28;20569;-49
2023/08/13 09:48:06;;;;;;;5.22;1.50;;;22.00;99.90;;;;;;5071183;28;20052;-49
2023/08/13 09:50:39;;;;;;;5.90;1.50;;;22.10;99.90;;;;;;5066145;28;20029;-51
2023/08/13 09:53:08;;;;;;;6.45;1.38;;;22.20;99.90;;;;;;5050228;28;20032;-52
2023/08/13 09:55:39;;;;;;;5.93;1.42;;;22.30;99.90;;;;;;5069093;28;20035;-50
2023/08/13 09:58:08;;;;;;;6.40;1.50;;;22.30;99.90;;;;;;5034434;28;20399;-50
2023/08/13 10:00:34;;;;;;;8.93;2.15;;;22.20;99.90;;;;;;5035224;28;20029;-49
2023/08/13 10:03:01;;;;;;;7.60;1.75;;;22.20;99.90;;;;;;5034928;28;20025;-52
2023/08/13 10:05:29;;;;;;;12.47;2.20;;;22.20;99.90;;;;;;5036279;28;20061;-51
2023/08/13 10:07:56;;;;;;;8.70;1.50;;;22.20;99.90;;;;;;5034566;28;20291;-53
2023/08/13 10:10:23;;;;;;;7.63;1.90;;;22.30;99.90;;;;;;5031938;28;20145;-50
2023/08/13 10:12:49;;;;;;;7.40;1.38;;;22.30;99.90;;;;;;5015754;28;20026;-54
2023/08/13 10:15:49;;;;;;;11.88;2.13;;;22.30;99.90;;;;;;5015124;28;20033;-48
2023/08/13 10:18:16;;;;;;;5.05;1.58;;;22.50;99.90;;;;;;5023700;28;20026;-50
2023/08/13 10:20:46;;;;;;;6.15;1.73;;;22.60;99.90;;;;;;5033576;28;20036;-51
2023/08/13 10:23:12;;;;;;;6.05;1.52;;;22.60;99.90;;;;;;5035729;28;20052;-55
2023/08/13 10:25:38;;;;;;;10.93;1.75;;;22.60;99.90;;;;;;5030952;28;20056;-51
2023/08/13 10:28:27;;;;;;;6.43;1.50;;;22.60;99.90;;;;;;5032172;28;20037;-52
2023/08/13 10:31:25;;;;;;;4.25;1.55;;;22.60;99.90;;;;;;5035366;28;20379;-56
2023/08/13 10:34:09;;;;;;;4.35;1.98;;;22.60;99.90;;;;;;5034445;28;20512;-53
2023/08/13 10:36:55;;;;;;;6.28;1.67;;;22.60;99.90;;;;;;5032430;28;20029;-50
2023/08/13 10:39:30;;;;;;;4.03;1.52;;;22.60;99.90;;;;;;5015499;28;20026;-50
2023/08/13 10:41:56;;;;;;;9.52;1.73;;;22.50;99.90;;;;;;5032437;28;20037;-51
2023/08/13 10:44:31;;;;;;;6.15;1.35;;;22.40;99.90;;;;;;5035071;28;20021;-45
2023/08/13 10:46:58;;;;;;;5.90;1.58;;;22.40;99.90;;;;;;5033169;28;20121;-51
2023/08/13 10:49:25;;;;;;;4.60;1.55;;;22.30;99.90;;;;;;5034719;28;20057;-50
2023/08/13 10:51:51;;;;;;;6.70;2.20;;;22.20;99.90;;;;;;5035367;28;20026;-52
2023/08/13 10:54:17;;;;;;;2.78;1.33;;;22.00;99.90;;;;;;5035241;28;20041;-54
2023/08/13 10:56:51;;;;;;;10.30;1.65;;;22.00;99.90;;;;;;5034324;28;20109;-53
2023/08/13 10:59:17;;;;;;;3.80;1.13;;;22.10;99.90;;;;;;5053551;28;20490;-50
2023/08/13 11:02:08;;;;;;;6.55;1.90;;;22.10;99.90;;;;;;5062028;28;20037;-46
2023/08/13 11:04:35;;;;;;;11.10;1.92;;;22.10;99.90;;;;;;5071746;28;20021;-52
2023/08/13 11:07:01;;;;;;;5.22;1.75;;;22.00;99.90;;;;;;5075035;28;20025;-53
2023/08/13 11:09:29;;;;;;;8.52;2.45;;;21.90;99.90;;;;;;5074936;28;20020;-51
2023/08/13 11:11:55;;;;;;;;;;;21.90;99.90;;;;;;5065955;28;20044;-52
2023/08/13 11:14:21;;;;;;;5.55;2.30;;;21.80;99.90;;;;;;5064779;28;20331;-65
2023/08/13 11:16:47;;;;;;;8.18;1.92;;;21.80;99.90;;;;;;5072193;28;20035;-72
2023/08/13 11:19:13;;;;;;;6.75;1.23;;;21.70;99.90;;;;;;5063882;28;20024;-48
2023/08/13 11:21:38;;;;;;;5.88;1.48;;;21.60;99.90;;;;;;5073546;28;20116;-52
2023/08/13 11:24:08;;;;;;;5.70;1.52;;;21.50;99.90;;;;;;5069997;28;20461;-50
2023/08/13 11:26:34;;;;;;;5.93;1.23;;;21.50;99.90;;;;;;5063087;28;20027;-53
2023/08/13 11:29:00;;;;;;;5.32;1.60;;;21.50;99.90;;;;;;5063035;28;20041;-47
2023/08/13 11:31:26;;;;;;;5.05;1.52;;;21.60;99.90;;;;;;5050515;28;20111;-51
2023/08/13 11:33:51;;;;;;;1.00;0.90;;;21.70;99.90;;;;;;5059054;28;20016;-51
2023/08/13 11:36:18;;;;;;;7.25;1.02;;;21.70;99.90;;;;;;5067581;28;20074;-52
2023/08/13 11:38:44;;;;;;;6.40;1.53;;;21.80;99.90;;;;;;5069820;28;20056;-52
2023/08/13 11:41:13;;;;;;;4.53;1.38;;;22.00;99.90;;;;;;5073218;28;20020;-53
2023/08/13 11:43:39;;;;;;;10.60;2.38;;;22.50;99.90;;;;;;5074156;28;20128;-53
2023/08/13 11:46:05;;;;;;;3.30;1.27;;;22.90;99.90;;;;;;5074227;28;20107;-53
2023/08/13 11:48:31;;;;;;;6.03;1.35;;;23.20;99.90;;;;;;5073412;28;20025;-51
2023/08/13 11:51:14;;;;;;;12.93;2.92;;;23.30;99.90;;;;;;5074105;28;20059;-51
2023/08/13 11:53:45;;;;;;;7.15;1.85;;;23.30;99.90;;;;;;5073883;28;20082;-54
2023/08/13 11:56:12;;;;;;;6.95;1.95;;;23.40;99.90;;;;;;5070687;28;20056;-52
2023/08/13 11:58:39;;;;;;;9.40;2.25;;;23.30;99.90;;;;;;5055605;28;20044;-54
2023/08/13 12:01:05;;;;;;;9.40;1.87;;;23.40;99.90;;;;;;5073997;28;20021;-51
2023/08/13 12:03:37;;;;;;;4.20;1.35;;;23.50;99.90;;;;;;5073916;28;20258;-53
2023/08/13 12:06:05;;;;;;;10.68;1.58;;;23.70;99.90;;;;;;5073655;28;20025;-53
2023/08/13 12:08:31;;;;;;;9.93;1.85;;;23.70;99.90;;;;;;5074009;28;20027;-66
2023/08/13 12:10:57;;;;;;;4.57;1.20;;;23.60;99.90;;;;;;5073664;28;20516;-51
2023/08/13 12:13:26;;;;;;;8.83;1.63;;;23.50;99.90;;;;;;5073667;28;20100;-53
2023/08/13 12:15:52;;;;;;;3.80;1.63;;;23.40;99.90;;;;;;5073332;28;20016;-53
2023/08/13 12:18:18;;;;;;;12.90;1.90;;;23.30;99.90;;;;;;5070462;28;20032;-50
2023/08/13 12:20:44;;;;;;;5.63;1.60;;;23.20;99.90;;;;;;5073089;28;20050;-53
2023/08/13 12:23:10;;;;;;;13.02;2.95;;;23.10;99.90;;;;;;5065944;28;20100;-51
2023/08/13 12:25:35;;;;;;;4.28;1.42;;;23.00;99.90;;;;;;5054381;28;20032;-51
2023/08/13 12:28:01;;;;;;;10.25;2.08;;;23.00;99.90;;;;;;5071569;28;20417;-63
2023/08/13 12:30:27;;;;;;;13.70;2.80;;;22.90;99.90;;;;;;5071638;28;20077;-53
2023/08/13 12:32:53;;;;;;;9.25;2.10;;;22.90;99.90;;;;;;5054499;28;20039;-53
2023/08/13 12:35:19;;;;;;;9.10;1.67;;;22.80;99.90;;;;;;5035228;28;20020;-53
2023/08/13 12:37:46;;;;;;;7.45;1.85;;;22.80;99.90;;;;;;5053456;28;20021;-52
2023/08/13 12:40:11;;;;;;;5.05;1.80;;;22.70;99.90;;;;;;5068677;28;20016;-51
2023/08/13 12:42:38;;;;;;;7.43;1.70;;;22.70;99.90;;;;;;5070436;28;20111;-51
2023/08/13 12:45:05;;;;;;;9.35;1.95;;;22.70;99.90;;;;;;5069262;28;20074;-41